createdAt,value
2023-05-17T00:02:21.656Z,85.21
2023-05-17T00:04:49.544Z,84.73
2023-05-17T00:07:17.370Z,84.48
2023-05-17T00:09:46.866Z,84.84
2023-05-17T00:12:15.007Z,85.06
2023-05-17T00:14:42.719Z,85.08
2023-05-17T00:17:10.470Z,85.10
2023-05-17T00:19:38.362Z,85.35
2023-05-17T00:22:06.289Z,85.58
2023-05-17T00:24:33.998Z,84.98
2023-05-17T00:27:03.322Z,85.28
2023-05-17T00:29:31.738Z,85.63
2023-05-17T00:31:59.622Z,85.74
2023-05-17T00:34:28.129Z,86.15
2023-05-17T00:36:56.239Z,85.94
2023-05-17T00:39:23.989Z,85.87
2023-05-17T00:41:51.942Z,86.63
2023-05-17T00:44:21.006Z,86.84
2023-05-17T00:46:50.472Z,86.43
2023-05-17T00:49:19.288Z,86.71
2023-05-17T00:51:47.161Z,87.32
2023-05-17T00:54:16.085Z,86.81
2023-05-17T00:56:44.052Z,87.01
2023-05-17T00:59:15.092Z,87.07
2023-05-17T01:01:45.911Z,87.04
2023-05-17T01:04:14.301Z,86.43
2023-05-17T01:06:42.756Z,86.50
2023-05-17T01:09:11.609Z,86.59
2023-05-17T01:11:48.228Z,88.18
2023-05-17T01:14:29.298Z,87.84
2023-05-17T01:17:04.175Z,87.38
2023-05-17T01:19:57.317Z,87.71
2023-05-17T01:22:44.776Z,87.91
2023-05-17T01:25:26.128Z,87.87
2023-05-17T01:27:58.033Z,88.38
2023-05-17T01:30:27.500Z,88.25
2023-05-17T01:32:57.751Z,87.71
2023-05-17T01:35:26.229Z,88.91
2023-05-17T01:37:55.044Z,88.93
2023-05-17T01:40:24.496Z,90.52
2023-05-17T01:43:11.173Z,90.00
2023-05-17T01:45:45.096Z,90.34
2023-05-17T01:48:21.733Z,90.92
2023-05-17T01:50:52.028Z,90.24
2023-05-17T01:53:23.121Z,92.27
2023-05-17T01:55:52.992Z,91.52
2023-05-17T01:58:27.057Z,92.03
2023-05-17T02:00:57.751Z,92.14
2023-05-17T02:03:26.042Z,94.38
2023-05-17T02:05:54.239Z,94.23
2023-05-17T02:08:22.102Z,95.25
2023-05-17T02:10:49.835Z,94.88
2023-05-17T02:13:17.648Z,95.76
2023-05-17T02:15:47.035Z,96.24
2023-05-17T02:18:15.003Z,97.37
2023-05-17T02:20:42.832Z,98.30
2023-05-17T02:23:10.610Z,98.67
2023-05-17T02:25:38.705Z,99.91
2023-05-17T02:28:06.902Z,99.19
2023-05-17T02:30:36.916Z,99.19
2023-05-17T02:33:06.128Z,99.70
2023-05-17T02:35:34.420Z,99.51
2023-05-17T02:38:02.809Z,99.88
2023-05-17T02:40:30.834Z,100.00
2023-05-17T02:42:58.512Z,100.00
2023-05-17T02:45:26.828Z,100.00
2023-05-17T02:47:54.941Z,100.00
2023-05-17T02:50:24.037Z,100.00
2023-05-17T02:52:52.000Z,100.00
2023-05-17T02:55:19.900Z,100.00
2023-05-17T02:57:47.845Z,100.00
2023-05-17T03:00:17.142Z,100.00
2023-05-17T03:02:45.323Z,100.00
2023-05-17T03:05:13.660Z,100.00
2023-05-17T03:07:48.422Z,100.00
2023-05-17T03:10:16.489Z,100.00
2023-05-17T03:12:46.254Z,100.00
2023-05-17T03:15:16.292Z,100.00
2023-05-17T03:17:45.126Z,100.00
2023-05-17T03:20:14.428Z,100.00
2023-05-17T03:22:42.626Z,100.00
2023-05-17T03:25:11.905Z,100.00
2023-05-17T03:27:39.813Z,99.27
2023-05-17T03:30:08.878Z,100.00
2023-05-17T03:32:40.517Z,100.00
2023-05-17T03:35:10.616Z,100.00
2023-05-17T03:37:40.436Z,100.00
2023-05-17T03:40:09.370Z,100.00
2023-05-17T03:42:38.754Z,100.00
2023-05-17T03:45:08.472Z,100.00
2023-05-17T03:47:37.313Z,100.00
2023-05-17T03:50:06.495Z,100.00
2023-05-17T03:52:35.264Z,100.00
2023-05-17T03:55:03.529Z,100.00
2023-05-17T03:57:32.532Z,100.00
2023-05-17T04:00:01.764Z,100.00
2023-05-17T04:02:29.772Z,100.00
2023-05-17T04:04:57.557Z,100.00
2023-05-17T04:07:25.468Z,100.00
2023-05-17T04:09:53.973Z,100.00
2023-05-17T04:12:21.699Z,100.00
2023-05-17T04:14:49.680Z,100.00
2023-05-17T04:17:18.944Z,100.00
2023-05-17T04:19:48.336Z,100.00
2023-05-17T04:22:16.439Z,100.00
2023-05-17T04:24:44.374Z,100.00
2023-05-17T04:27:12.542Z,99.54
2023-05-17T04:29:40.973Z,99.32
2023-05-17T04:32:09.821Z,99.10
2023-05-17T04:34:40.118Z,98.10
2023-05-17T04:37:09.914Z,97.56
2023-05-17T04:39:39.016Z,98.02
2023-05-17T04:42:07.219Z,97.01
2023-05-17T04:44:39.349Z,97.63
2023-05-17T04:47:07.167Z,97.20
2023-05-17T04:49:34.945Z,97.22
2023-05-17T04:52:06.279Z,97.53
2023-05-17T04:54:35.593Z,97.29
2023-05-17T04:57:03.658Z,97.50
2023-05-17T04:59:51.925Z,97.48
2023-05-17T05:02:20.151Z,97.36
2023-05-17T05:04:48.374Z,98.01
2023-05-17T05:07:18.774Z,97.60
2023-05-17T05:09:47.919Z,98.18
2023-05-17T05:12:17.206Z,98.09
2023-05-17T05:14:45.316Z,99.34
2023-05-17T05:17:14.102Z,99.54
2023-05-17T05:19:42.996Z,100.00
2023-05-17T05:22:11.576Z,100.00
2023-05-17T05:24:43.038Z,99.73
2023-05-17T05:27:11.071Z,99.97
2023-05-17T05:29:39.474Z,100.00
2023-05-17T05:32:08.609Z,99.43
2023-05-17T05:34:43.177Z,98.39
2023-05-17T05:37:11.278Z,96.25
2023-05-17T05:39:39.416Z,97.79
2023-05-17T05:42:08.871Z,99.08
2023-05-17T05:44:36.662Z,98.24
2023-05-17T05:47:05.420Z,96.20
2023-05-17T05:49:33.455Z,94.17
2023-05-17T05:52:01.358Z,94.19
2023-05-17T05:54:31.193Z,94.66
2023-05-17T05:57:00.836Z,94.39
2023-05-17T05:59:30.332Z,93.70
2023-05-17T06:01:59.992Z,93.45
2023-05-17T06:04:36.709Z,93.41
2023-05-17T06:07:13.242Z,93.80
2023-05-17T06:09:41.169Z,94.24
2023-05-17T06:12:09.238Z,92.57
2023-05-17T06:14:38.716Z,93.77
2023-05-17T06:17:06.714Z,93.29
2023-05-17T06:19:34.863Z,92.11
2023-05-17T06:22:02.748Z,92.75
2023-05-17T06:24:30.926Z,91.02
2023-05-17T06:26:58.908Z,91.93
2023-05-17T06:29:26.853Z,90.42
2023-05-17T06:31:58.015Z,89.38
2023-05-17T06:34:40.052Z,90.20
2023-05-17T06:37:09.913Z,88.28
2023-05-17T06:39:42.622Z,90.20
2023-05-17T06:42:15.222Z,88.68
2023-05-17T06:44:44.593Z,87.64
2023-05-17T06:47:13.725Z,88.82
2023-05-17T06:49:41.656Z,89.02
2023-05-17T06:52:09.548Z,88.32
2023-05-17T06:54:37.974Z,87.09
2023-05-17T06:57:06.524Z,86.93
2023-05-17T06:59:34.437Z,87.55
2023-05-17T07:02:02.214Z,88.47
2023-05-17T07:04:31.704Z,87.17
2023-05-17T07:07:00.051Z,86.17
2023-05-17T07:09:27.912Z,84.49
2023-05-17T07:11:55.963Z,85.76
2023-05-17T07:14:23.760Z,83.37
2023-05-17T07:16:51.713Z,84.61
2023-05-17T07:19:19.517Z,83.24
2023-05-17T07:21:50.071Z,85.09
2023-05-17T07:24:17.921Z,86.09
2023-05-17T07:26:48.180Z,85.07
2023-05-17T07:29:17.086Z,83.30
2023-05-17T07:31:44.944Z,83.52
2023-05-17T07:34:13.157Z,83.56
2023-05-17T07:36:40.937Z,79.62
2023-05-17T07:39:10.640Z,80.58
2023-05-17T07:41:38.435Z,78.56
2023-05-17T07:44:06.456Z,79.10
2023-05-17T07:46:34.429Z,74.31
2023-05-17T07:49:02.463Z,74.89
2023-05-17T07:51:31.507Z,74.29
2023-05-17T07:53:59.390Z,71.94
2023-05-17T07:56:28.490Z,70.21
2023-05-17T07:58:56.526Z,67.92
2023-05-17T08:01:24.331Z,68.60
2023-05-17T08:03:52.215Z,71.28
2023-05-17T08:06:20.372Z,71.92
2023-05-17T08:08:48.220Z,72.84
2023-05-17T08:11:17.030Z,72.83
2023-05-17T08:13:46.372Z,72.90
2023-05-17T08:16:15.003Z,72.79
2023-05-17T08:18:43.658Z,75.35
2023-05-17T08:21:12.133Z,73.49
2023-05-17T08:23:40.060Z,72.22
2023-05-17T08:26:08.424Z,72.53
2023-05-17T08:28:36.343Z,72.92
2023-05-17T08:31:09.057Z,71.89
2023-05-17T08:33:37.175Z,70.16
2023-05-17T08:36:08.139Z,71.13
2023-05-17T08:38:36.076Z,69.54
2023-05-17T08:41:03.998Z,67.86
2023-05-17T08:43:33.335Z,67.60
2023-05-17T08:46:04.058Z,69.32
2023-05-17T08:48:36.717Z,69.45
2023-05-17T08:51:05.052Z,68.90
2023-05-17T08:53:34.526Z,67.22
2023-05-17T08:56:05.462Z,68.58
2023-05-17T08:58:47.975Z,67.53
2023-05-17T09:01:25.902Z,69.30
2023-05-17T09:03:56.580Z,70.59
2023-05-17T09:06:25.447Z,68.35
2023-05-17T09:08:56.394Z,69.83
2023-05-17T09:11:26.924Z,70.01
2023-05-17T09:13:54.906Z,71.71
2023-05-17T09:16:23.470Z,72.72
2023-05-17T09:18:56.702Z,70.71
2023-05-17T09:21:25.074Z,70.30
2023-05-17T09:24:05.369Z,69.63
2023-05-17T09:26:40.947Z,69.62
2023-05-17T09:29:10.851Z,67.79
2023-05-17T09:31:39.129Z,64.15
2023-05-17T09:34:09.180Z,62.77
2023-05-17T09:36:38.719Z,65.85
2023-05-17T09:39:12.053Z,64.55
2023-05-17T09:41:45.475Z,60.79
2023-05-17T09:44:15.747Z,63.09
2023-05-17T09:46:45.769Z,63.38
2023-05-17T09:49:16.669Z,63.28
2023-05-17T09:51:45.581Z,64.33
2023-05-17T09:54:14.219Z,65.03
2023-05-17T09:56:42.117Z,62.79
2023-05-17T09:59:14.326Z,65.43
2023-05-17T10:01:43.814Z,63.92
2023-05-17T10:04:13.038Z,62.97
2023-05-17T10:06:49.514Z,66.17
2023-05-17T10:09:22.536Z,65.89
2023-05-17T10:11:53.505Z,66.74
2023-05-17T10:14:28.093Z,67.39
2023-05-17T10:16:57.125Z,68.63
2023-05-17T10:19:26.439Z,68.03
2023-05-17T10:22:05.140Z,68.48
2023-05-17T10:24:47.469Z,68.17
2023-05-17T10:27:17.066Z,66.68
2023-05-17T10:29:47.656Z,67.38
2023-05-17T10:32:19.498Z,65.99
2023-05-17T10:34:57.596Z,62.47
2023-05-17T10:37:36.028Z,56.71
2023-05-17T10:40:05.164Z,54.43
2023-05-17T10:42:33.298Z,54.10
2023-05-17T10:45:02.048Z,57.08
2023-05-17T10:47:33.779Z,56.86
2023-05-17T10:50:02.049Z,58.61
2023-05-17T10:52:29.789Z,62.59
2023-05-17T10:55:00.954Z,60.30
2023-05-17T11:00:09.190Z,59.73
2023-05-17T11:02:42.621Z,58.55
2023-05-17T11:05:24.118Z,62.26
2023-05-17T11:07:52.187Z,62.49
2023-05-17T11:10:22.639Z,64.21
2023-05-17T11:12:55.272Z,61.99
2023-05-17T11:15:26.739Z,59.15
2023-05-17T11:17:56.217Z,61.98
2023-05-17T11:20:36.871Z,63.58
2023-05-17T11:23:07.121Z,63.43
2023-05-17T11:25:37.977Z,62.02
2023-05-17T11:28:10.729Z,64.04
2023-05-17T11:30:46.351Z,63.09
2023-05-17T11:33:29.239Z,62.96
2023-05-17T11:36:06.119Z,63.45
2023-05-17T11:38:34.307Z,63.82
2023-05-17T11:43:50.733Z,64.19
2023-05-17T11:46:21.266Z,62.35
2023-05-17T11:48:51.787Z,60.14
2023-05-17T11:51:23.841Z,60.40
2023-05-17T11:53:55.925Z,58.58
2023-05-17T11:56:39.424Z,57.13
2023-05-17T11:59:11.334Z,53.77
2023-05-17T12:01:46.609Z,53.24
2023-05-17T12:04:15.170Z,51.04
2023-05-17T12:06:43.877Z,52.51
2023-05-17T12:09:13.775Z,52.86
2023-05-17T12:11:43.371Z,51.54
2023-05-17T12:14:12.379Z,53.44
2023-05-17T12:16:44.630Z,54.92
2023-05-17T12:19:20.042Z,52.70
2023-05-17T12:21:48.052Z,55.73
2023-05-17T12:24:16.947Z,55.94
2023-05-17T12:26:46.843Z,57.47
2023-05-17T12:29:17.645Z,53.34
2023-05-17T12:31:50.413Z,53.91
2023-05-17T12:34:19.216Z,50.19
2023-05-17T12:36:47.567Z,51.28
2023-05-17T12:39:18.253Z,48.62
2023-05-17T12:41:48.819Z,50.20
2023-05-17T12:44:17.093Z,51.63
2023-05-17T12:46:45.295Z,52.73
2023-05-17T12:49:13.712Z,50.90
2023-05-17T12:51:43.979Z,51.39
2023-05-17T12:54:12.670Z,48.63
2023-05-17T12:56:43.561Z,49.43
2023-05-17T12:59:17.372Z,51.37
2023-05-17T13:01:47.068Z,46.84
2023-05-17T13:04:16.632Z,49.09
2023-05-17T13:06:45.737Z,49.50
2023-05-17T13:09:14.473Z,49.57
2023-05-17T13:11:42.780Z,51.93
2023-05-17T13:14:12.563Z,52.82
2023-05-17T13:16:42.884Z,52.35
2023-05-17T13:19:14.918Z,51.81
2023-05-17T13:21:42.876Z,51.52
2023-05-17T13:24:11.158Z,50.16
2023-05-17T13:26:39.266Z,48.30
2023-05-17T13:29:07.000Z,45.88
2023-05-17T13:31:34.840Z,49.18
2023-05-17T13:34:04.027Z,50.86
2023-05-17T13:36:31.872Z,50.51
2023-05-17T13:39:01.850Z,52.35
2023-05-17T13:41:29.773Z,51.18
2023-05-17T13:43:57.710Z,50.05
2023-05-17T13:46:25.504Z,49.72
2023-05-17T13:48:54.246Z,51.61
2023-05-17T13:51:23.573Z,51.18
2023-05-17T13:53:51.344Z,51.39
2023-05-17T13:56:19.237Z,50.92
2023-05-17T13:58:48.021Z,50.35
2023-05-17T14:01:16.015Z,49.92
2023-05-17T14:03:44.032Z,46.82
2023-05-17T14:06:11.885Z,49.88
2023-05-17T14:08:41.204Z,46.84
2023-05-17T14:11:09.165Z,49.63
2023-05-17T14:13:37.880Z,52.08
2023-05-17T14:16:06.572Z,50.20
2023-05-17T14:18:34.603Z,48.39
2023-05-17T14:21:03.514Z,47.96
2023-05-17T14:23:31.708Z,47.50
2023-05-17T14:26:02.796Z,49.79
2023-05-17T14:28:30.538Z,50.14
2023-05-17T14:30:58.358Z,47.46
2023-05-17T14:33:26.888Z,50.64
2023-05-17T14:35:54.869Z,49.40
2023-05-17T14:38:23.338Z,49.39
2023-05-17T14:40:51.151Z,48.98
2023-05-17T14:43:20.979Z,50.82
2023-05-17T14:45:48.836Z,49.47
2023-05-17T14:48:16.969Z,48.35
2023-05-17T14:50:46.523Z,49.61
2023-05-17T14:53:14.428Z,49.57
2023-05-17T14:55:42.435Z,50.02
2023-05-17T14:58:13.063Z,51.89
2023-05-17T15:00:47.336Z,50.30
2023-05-17T15:03:17.846Z,50.49
2023-05-17T15:05:54.652Z,51.55
2023-05-17T15:08:23.387Z,52.02
2023-05-17T15:10:52.225Z,50.92
2023-05-17T15:13:20.132Z,51.26
2023-05-17T15:15:49.993Z,52.50
2023-05-17T15:18:17.804Z,52.12
2023-05-17T15:20:46.122Z,51.63
2023-05-17T15:23:14.272Z,49.92
2023-05-17T15:25:42.178Z,50.32
2023-05-17T15:28:09.967Z,50.74
2023-05-17T15:30:37.808Z,50.97
2023-05-17T15:33:07.422Z,51.41
2023-05-17T15:35:35.500Z,52.61
2023-05-17T15:38:06.709Z,52.20
2023-05-17T15:40:34.752Z,51.24
2023-05-17T15:43:02.854Z,50.87
2023-05-17T15:45:31.361Z,48.88
2023-05-17T15:48:01.761Z,51.06
2023-05-17T15:50:31.081Z,51.52
2023-05-17T15:53:00.802Z,51.43
2023-05-17T15:55:30.971Z,52.01
2023-05-17T15:57:58.969Z,51.38
2023-05-17T16:00:27.655Z,51.41
2023-05-17T16:02:55.647Z,52.28
2023-05-17T16:05:23.697Z,51.69
2023-05-17T16:07:52.843Z,51.43
2023-05-17T16:10:20.750Z,52.41
2023-05-17T16:12:50.270Z,51.23
2023-05-17T16:15:18.140Z,51.98
2023-05-17T16:17:46.174Z,51.88
2023-05-17T16:20:14.956Z,50.67
2023-05-17T16:22:44.940Z,51.81
2023-05-17T16:25:16.674Z,52.70
2023-05-17T16:27:44.395Z,53.76
2023-05-17T16:30:13.435Z,53.30
2023-05-17T16:32:41.718Z,51.54
2023-05-17T16:35:10.789Z,52.44
2023-05-17T16:37:38.921Z,52.70
2023-05-17T16:40:07.980Z,52.32
2023-05-17T16:42:37.188Z,53.21
2023-05-17T16:45:07.149Z,53.84
2023-05-17T16:47:36.218Z,54.06
2023-05-17T16:50:05.321Z,54.01
2023-05-17T16:52:33.113Z,52.59
2023-05-17T16:55:03.454Z,53.64
2023-05-17T16:57:32.194Z,52.57
2023-05-17T17:00:02.352Z,53.26
2023-05-17T17:02:30.228Z,53.35
2023-05-17T17:04:58.442Z,51.99
2023-05-17T17:07:26.236Z,50.79
2023-05-17T17:09:54.072Z,51.78
2023-05-17T17:12:24.967Z,52.43
2023-05-17T17:14:54.273Z,52.36
2023-05-17T17:17:23.705Z,52.70
2023-05-17T17:19:52.944Z,53.13
2023-05-17T17:22:20.785Z,52.90
2023-05-17T17:24:48.681Z,53.09
2023-05-17T17:27:16.400Z,52.73
2023-05-17T17:29:44.581Z,53.78
2023-05-17T17:32:12.845Z,52.72
2023-05-17T17:34:42.197Z,53.39
2023-05-17T17:37:10.233Z,51.43
2023-05-17T17:39:38.513Z,52.00
2023-05-17T17:42:06.684Z,53.05
2023-05-17T17:44:34.739Z,52.70
2023-05-17T17:47:02.577Z,54.03
2023-05-17T17:49:30.916Z,53.25
2023-05-17T17:52:01.453Z,54.97
2023-05-17T17:54:30.046Z,53.31
2023-05-17T17:56:58.495Z,53.34
2023-05-17T17:59:26.453Z,52.77
2023-05-17T18:01:54.422Z,53.28
2023-05-17T18:04:22.331Z,53.28
2023-05-17T18:06:50.258Z,53.81
2023-05-17T18:09:19.992Z,53.94
2023-05-17T18:11:49.300Z,54.22
2023-05-17T18:14:17.589Z,54.65
2023-05-17T18:16:45.874Z,53.50
2023-05-17T18:19:13.689Z,53.53
2023-05-17T18:21:43.355Z,54.66
2023-05-17T18:24:12.385Z,55.75
2023-05-17T18:26:41.798Z,54.71
2023-05-17T18:29:09.765Z,55.65
2023-05-17T18:31:37.573Z,54.75
2023-05-17T18:34:05.829Z,55.08
2023-05-17T18:36:33.677Z,56.64
2023-05-17T18:39:02.280Z,56.98
2023-05-17T18:41:30.103Z,57.59
2023-05-17T18:44:03.523Z,57.91
2023-05-17T18:46:31.767Z,57.17
2023-05-17T18:48:59.747Z,57.54
2023-05-17T18:51:28.585Z,58.39
2023-05-17T18:53:56.438Z,58.51
2023-05-17T18:56:25.188Z,58.17
2023-05-17T18:58:53.163Z,58.54
2023-05-17T19:01:22.418Z,59.15
2023-05-17T19:03:51.528Z,60.31
2023-05-17T19:06:19.472Z,59.71
2023-05-17T19:08:47.510Z,59.87
2023-05-17T19:11:15.551Z,59.61
2023-05-17T19:13:43.417Z,60.82
2023-05-17T19:16:11.458Z,61.33
2023-05-17T19:18:40.670Z,60.93
2023-05-17T19:21:08.655Z,61.48
2023-05-17T19:23:36.402Z,61.04
2023-05-17T19:26:04.249Z,60.66
2023-05-17T19:28:32.981Z,60.75
2023-05-17T19:31:00.769Z,60.94
2023-05-17T19:33:28.793Z,61.19
2023-05-17T19:35:57.920Z,61.73
2023-05-17T19:38:26.280Z,62.88
2023-05-17T19:40:54.091Z,62.74
2023-05-17T19:43:21.964Z,63.07
2023-05-17T19:45:50.482Z,63.05
2023-05-17T19:48:18.228Z,62.99
2023-05-17T19:50:46.221Z,62.55
2023-05-17T19:53:15.376Z,63.40
2023-05-17T19:55:43.094Z,62.97
2023-05-17T19:58:11.101Z,63.30
2023-05-17T20:00:39.054Z,62.54
2023-05-17T20:03:07.265Z,63.34
2023-05-17T20:05:35.748Z,63.50
2023-05-17T20:08:05.262Z,62.99
2023-05-17T20:10:34.722Z,64.01
2023-05-17T20:13:02.519Z,64.23
2023-05-17T20:15:30.452Z,63.95
2023-05-17T20:17:58.617Z,64.79
2023-05-17T20:20:26.412Z,64.99
2023-05-17T20:22:54.575Z,64.38
2023-05-17T20:25:22.476Z,64.77
2023-05-17T20:27:51.672Z,64.98
2023-05-17T20:30:19.592Z,64.55
2023-05-17T20:32:47.693Z,64.65
2023-05-17T20:35:15.552Z,64.17
2023-05-17T20:37:43.231Z,64.61
2023-05-17T20:40:12.654Z,64.10
2023-05-17T20:42:40.557Z,64.66
2023-05-17T20:45:13.224Z,65.70
2023-05-17T20:47:42.794Z,65.58
2023-05-17T20:50:12.512Z,66.42
2023-05-17T20:52:40.394Z,67.38
2023-05-17T20:55:09.748Z,67.09
2023-05-17T20:57:37.545Z,67.93
2023-05-17T21:00:08.823Z,67.34
2023-05-17T21:02:38.837Z,66.36
2023-05-17T21:05:09.084Z,66.89
2023-05-17T21:07:39.300Z,67.35
2023-05-17T21:10:07.936Z,67.42
2023-05-17T21:12:36.699Z,67.63
2023-05-17T21:15:16.556Z,67.63
2023-05-17T21:17:47.295Z,67.96
2023-05-17T21:20:15.329Z,67.25
2023-05-17T21:22:43.057Z,68.28
2023-05-17T21:25:11.182Z,67.12
2023-05-17T21:27:38.881Z,66.75
2023-05-17T21:30:07.806Z,67.85
2023-05-17T21:32:35.924Z,67.80
2023-05-17T21:35:05.477Z,67.40
2023-05-17T21:37:33.318Z,67.62
2023-05-17T21:42:29.050Z,67.86
2023-05-17T21:44:57.498Z,67.88
2023-05-17T21:47:25.411Z,67.16
2023-05-17T21:49:53.436Z,67.68
2023-05-17T21:52:23.163Z,68.37
2023-05-17T21:54:51.005Z,68.70
2023-05-17T21:57:21.361Z,67.57
2023-05-17T21:59:49.581Z,68.36
2023-05-17T22:02:17.709Z,68.46
2023-05-17T22:04:45.461Z,68.90
2023-05-17T22:07:14.003Z,69.47
2023-05-17T22:09:45.350Z,70.11
2023-05-17T22:12:13.293Z,70.37
2023-05-17T22:14:43.313Z,70.44
2023-05-17T22:17:11.196Z,69.99
2023-05-17T22:19:41.158Z,70.88
2023-05-17T22:22:09.171Z,71.05
2023-05-17T22:24:37.310Z,70.28
2023-05-17T22:27:07.172Z,71.46
2023-05-17T22:29:34.896Z,70.48
2023-05-17T22:32:03.562Z,71.04
2023-05-17T22:34:31.925Z,70.29
2023-05-17T22:36:59.901Z,71.25
2023-05-17T22:39:28.273Z,71.13
2023-05-17T22:41:57.204Z,71.50
2023-05-17T22:44:26.569Z,71.36
2023-05-17T22:46:57.661Z,70.05
2023-05-17T22:49:25.961Z,70.05
2023-05-17T22:51:54.190Z,70.43
2023-05-17T22:54:22.196Z,71.04
2023-05-17T22:56:49.930Z,72.08
2023-05-17T22:59:18.323Z,71.53
2023-05-17T23:01:47.849Z,71.65
2023-05-17T23:04:15.635Z,71.47
2023-05-17T23:06:43.733Z,71.91
2023-05-17T23:09:11.452Z,70.60
2023-05-17T23:11:41.193Z,71.07
2023-05-17T23:14:08.923Z,70.71
2023-05-17T23:16:37.418Z,71.50
2023-05-17T23:19:06.889Z,71.99
2023-05-17T23:21:35.964Z,71.90
2023-05-17T23:24:03.756Z,72.07
2023-05-17T23:26:33.916Z,72.20
2023-05-17T23:29:03.364Z,71.65
2023-05-17T23:31:31.649Z,72.81
2023-05-17T23:34:08.969Z,72.45
2023-05-17T23:36:37.097Z,72.65
2023-05-17T23:39:05.771Z,73.08
2023-05-17T23:41:33.696Z,73.46
2023-05-17T23:44:01.638Z,73.59
2023-05-17T23:46:29.439Z,74.01
2023-05-17T23:48:57.389Z,74.05
2023-05-17T23:51:26.551Z,73.47
2023-05-17T23:53:54.433Z,73.67
2023-05-17T23:56:23.140Z,74.21
2023-05-17T23:58:51.026Z,74.96
